createdAt,value
2023-03-24T00:02:17.179Z,96.40
2023-03-24T00:04:48.546Z,95.40
2023-03-24T00:07:17.694Z,95.20
2023-03-24T00:09:47.242Z,95.10
2023-03-24T00:12:19.520Z,94.60
2023-03-24T00:14:48.435Z,94.80
2023-03-24T00:17:18.517Z,94.80
2023-03-24T00:19:47.540Z,94.20
2023-03-24T00:22:16.329Z,94.00
2023-03-24T00:24:48.862Z,94.00
2023-03-24T00:27:19.664Z,93.70
2023-03-24T00:29:48.622Z,93.00
2023-03-24T00:32:17.731Z,92.80
2023-03-24T00:34:46.588Z,92.60
2023-03-24T00:37:15.376Z,92.70
2023-03-24T00:39:44.571Z,92.60
2023-03-24T00:42:14.681Z,92.50
2023-03-24T00:44:45.926Z,92.50
2023-03-24T00:47:14.834Z,92.70
2023-03-24T00:49:43.666Z,92.30
2023-03-24T00:52:34.943Z,92.30
2023-03-24T00:55:06.762Z,92.30
2023-03-24T00:57:35.998Z,92.30
2023-03-24T01:00:15.228Z,92.30
2023-03-24T01:02:44.807Z,92.20
2023-03-24T01:05:15.600Z,92.20
2023-03-24T01:07:44.860Z,92.10
2023-03-24T01:10:15.765Z,92.00
2023-03-24T01:12:44.558Z,92.00
2023-03-24T01:15:18.295Z,91.90
2023-03-24T01:17:49.675Z,92.10
2023-03-24T01:20:18.638Z,91.90
2023-03-24T01:22:47.713Z,92.00
2023-03-24T01:25:20.086Z,92.00
2023-03-24T01:27:50.624Z,91.80
2023-03-24T01:30:23.360Z,91.70
2023-03-24T01:32:52.306Z,91.50
2023-03-24T01:35:23.315Z,91.40
2023-03-24T01:37:52.136Z,91.20
2023-03-24T01:40:25.034Z,91.20
2023-03-24T01:42:54.178Z,91.10
2023-03-24T01:45:57.373Z,91.40
2023-03-24T01:48:38.730Z,91.20
2023-03-24T01:51:18.321Z,91.20
2023-03-24T01:53:55.450Z,91.20
2023-03-24T01:56:25.184Z,91.30
2023-03-24T01:58:59.508Z,91.30
2023-03-24T02:01:31.840Z,91.50
2023-03-24T02:04:04.851Z,91.50
2023-03-24T02:06:36.725Z,91.60
2023-03-24T02:09:05.567Z,90.90
2023-03-24T02:11:36.438Z,90.80
2023-03-24T02:14:06.832Z,90.90
2023-03-24T02:17:03.487Z,90.60
2023-03-24T02:19:45.774Z,90.80
2023-03-24T02:22:38.043Z,90.20
2023-03-24T02:25:38.132Z,90.40
2023-03-24T02:28:27.965Z,90.10
2023-03-24T02:31:17.320Z,90.00
2023-03-24T02:33:50.556Z,89.40
2023-03-24T02:36:31.257Z,89.80
2023-03-24T02:39:27.557Z,90.00
2023-03-24T02:42:05.036Z,89.00
2023-03-24T02:44:48.892Z,89.70
2023-03-24T02:47:38.754Z,89.80
2023-03-24T02:50:08.853Z,89.90
2023-03-24T02:53:02.252Z,89.20
2023-03-24T02:55:40.513Z,88.80
2023-03-24T02:58:17.185Z,88.40
2023-03-24T03:01:00.577Z,86.90
2023-03-24T03:03:39.459Z,86.90
2023-03-24T03:06:23.180Z,88.20
2023-03-24T03:08:53.022Z,86.60
2023-03-24T03:11:21.923Z,87.00
2023-03-24T03:13:57.069Z,86.50
2023-03-24T03:16:35.497Z,86.30
2023-03-24T03:19:25.099Z,86.80
2023-03-24T03:21:55.178Z,85.70
2023-03-24T03:24:31.100Z,84.80
2023-03-24T03:27:07.065Z,86.40
2023-03-24T03:29:41.319Z,84.10
2023-03-24T03:32:16.496Z,84.50
2023-03-24T03:35:05.236Z,85.50
2023-03-24T03:37:39.223Z,84.60
2023-03-24T03:40:13.789Z,85.00
2023-03-24T03:42:42.973Z,83.10
2023-03-24T03:45:13.410Z,82.30
2023-03-24T03:47:42.743Z,81.70
2023-03-24T03:50:12.190Z,80.50
2023-03-24T03:52:42.609Z,82.40
2023-03-24T03:55:13.232Z,81.60
2023-03-24T03:57:42.443Z,81.10
2023-03-24T04:00:17.679Z,81.70
2023-03-24T04:03:12.000Z,80.40
2023-03-24T04:05:47.180Z,79.90
2023-03-24T04:08:55.089Z,80.90
2023-03-24T04:11:30.535Z,81.40
2023-03-24T04:14:22.906Z,78.30
2023-03-24T04:17:22.130Z,79.20
2023-03-24T04:20:01.585Z,79.20
2023-03-24T04:22:34.152Z,78.10
2023-03-24T04:25:43.353Z,78.50
2023-03-24T04:28:28.606Z,77.30
2023-03-24T04:31:04.528Z,76.20
2023-03-24T04:36:46.382Z,75.90
2023-03-24T04:39:29.515Z,76.10
2023-03-24T04:42:02.021Z,76.50
2023-03-24T04:44:34.041Z,76.50
2023-03-24T04:47:04.550Z,73.90
2023-03-24T04:49:33.620Z,75.30
2023-03-24T04:52:02.492Z,74.00
2023-03-24T04:54:31.346Z,73.50
2023-03-24T04:57:03.272Z,75.80
2023-03-24T04:59:35.167Z,74.20
2023-03-24T05:02:05.428Z,72.10
2023-03-24T05:04:37.858Z,75.60
2023-03-24T05:07:07.427Z,76.40
2023-03-24T05:09:36.434Z,77.70
2023-03-24T05:12:05.331Z,75.50
2023-03-24T05:14:34.202Z,75.60
2023-03-24T05:17:03.766Z,72.70
2023-03-24T05:19:33.891Z,75.90
2023-03-24T05:22:02.747Z,74.80
2023-03-24T05:24:31.658Z,72.40
2023-03-24T05:27:00.386Z,74.60
2023-03-24T05:29:29.236Z,73.20
2023-03-24T05:31:58.107Z,75.00
2023-03-24T05:34:27.297Z,74.50
2023-03-24T05:36:56.034Z,73.30
2023-03-24T05:39:24.890Z,76.10
2023-03-24T05:41:53.669Z,75.30
2023-03-24T05:44:22.902Z,73.00
2023-03-24T05:46:51.710Z,73.20
2023-03-24T05:49:20.588Z,71.50
2023-03-24T05:51:49.401Z,73.90
2023-03-24T05:54:18.264Z,73.90
2023-03-24T05:56:47.327Z,71.10
2023-03-24T05:59:16.755Z,73.10
2023-03-24T06:01:45.678Z,71.00
2023-03-24T06:04:15.056Z,72.20
2023-03-24T06:06:46.656Z,74.10
2023-03-24T06:09:17.911Z,73.30
2023-03-24T06:11:46.958Z,69.70
2023-03-24T06:14:15.818Z,70.80
2023-03-24T06:16:44.527Z,69.50
2023-03-24T06:19:13.345Z,67.90
2023-03-24T06:21:42.122Z,71.40
2023-03-24T06:24:11.693Z,67.60
2023-03-24T06:26:43.118Z,70.80
2023-03-24T06:29:13.420Z,72.70
2023-03-24T06:31:42.148Z,68.60
2023-03-24T06:34:10.868Z,69.10
2023-03-24T06:36:39.696Z,67.70
2023-03-24T06:39:08.640Z,69.60
2023-03-24T06:41:37.378Z,68.90
2023-03-24T06:44:06.668Z,68.90
2023-03-24T06:46:35.514Z,67.00
2023-03-24T06:49:04.754Z,65.20
2023-03-24T06:51:33.979Z,68.20
2023-03-24T06:54:03.440Z,65.90
2023-03-24T06:56:32.455Z,65.10
2023-03-24T06:59:01.528Z,66.10
2023-03-24T07:01:30.680Z,69.40
2023-03-24T07:03:59.783Z,70.30
2023-03-24T07:06:30.708Z,68.60
2023-03-24T07:09:00.590Z,65.70
2023-03-24T07:11:29.555Z,65.20
2023-03-24T07:13:58.534Z,66.30
2023-03-24T07:16:27.307Z,67.40
2023-03-24T07:18:56.138Z,68.90
2023-03-24T07:21:25.109Z,69.30
2023-03-24T07:23:53.855Z,69.30
2023-03-24T07:26:22.871Z,70.70
2023-03-24T07:28:51.972Z,70.60
2023-03-24T07:31:21.289Z,69.10
2023-03-24T07:33:50.161Z,70.20
2023-03-24T07:36:18.902Z,70.10
2023-03-24T07:38:47.693Z,69.60
2023-03-24T07:41:16.625Z,69.00
2023-03-24T07:43:45.446Z,70.30
2023-03-24T07:46:14.247Z,71.00
2023-03-24T07:48:43.585Z,71.40
2023-03-24T07:51:12.395Z,66.30
2023-03-24T07:53:41.217Z,62.70
2023-03-24T07:56:13.165Z,65.70
2023-03-24T07:58:42.271Z,58.80
2023-03-24T08:01:11.629Z,62.30
2023-03-24T08:03:42.176Z,60.60
2023-03-24T08:06:13.067Z,59.80
2023-03-24T08:08:42.157Z,61.10
2023-03-24T08:11:10.937Z,59.70
2023-03-24T08:13:39.654Z,57.80
2023-03-24T08:16:08.908Z,62.90
2023-03-24T08:18:37.864Z,58.30
2023-03-24T08:21:07.083Z,57.50
2023-03-24T08:23:37.612Z,62.00
2023-03-24T08:26:08.149Z,60.00
2023-03-24T08:28:36.995Z,56.60
2023-03-24T08:31:06.375Z,58.40
2023-03-24T08:33:36.266Z,59.40
2023-03-24T08:36:05.986Z,58.20
2023-03-24T08:38:34.819Z,62.40
2023-03-24T08:41:07.843Z,58.30
2023-03-24T08:43:38.535Z,57.80
2023-03-24T08:46:13.217Z,58.20
2023-03-24T08:48:43.005Z,56.20
2023-03-24T08:51:17.422Z,58.00
2023-03-24T08:53:46.370Z,57.60
2023-03-24T08:57:13.890Z,60.00
2023-03-24T08:59:42.602Z,62.70
2023-03-24T09:02:14.225Z,64.00
2023-03-24T09:04:43.827Z,64.80
2023-03-24T09:07:12.906Z,64.30
2023-03-24T09:09:41.601Z,64.40
2023-03-24T09:12:10.798Z,64.80
2023-03-24T09:14:39.525Z,65.30
2023-03-24T09:17:08.177Z,65.90
2023-03-24T09:19:37.018Z,64.70
2023-03-24T09:22:05.737Z,64.70
2023-03-24T09:24:34.473Z,66.30
2023-03-24T09:27:03.085Z,66.90
2023-03-24T09:29:32.320Z,67.00
2023-03-24T09:32:01.002Z,66.70
2023-03-24T09:34:29.684Z,66.90
2023-03-24T09:36:58.514Z,66.30
2023-03-24T09:39:27.799Z,65.10
2023-03-24T09:41:57.149Z,65.40
2023-03-24T09:44:46.161Z,65.20
2023-03-24T09:47:32.947Z,65.70
2023-03-24T09:50:05.556Z,66.00
2023-03-24T09:52:36.368Z,66.40
2023-03-24T09:55:05.981Z,66.50
2023-03-24T09:57:44.776Z,66.40
2023-03-24T10:00:24.230Z,67.50
2023-03-24T10:02:55.465Z,67.70
2023-03-24T10:05:36.351Z,68.10
2023-03-24T10:08:13.452Z,68.30
2023-03-24T10:11:06.752Z,68.80
2023-03-24T10:13:51.818Z,69.00
2023-03-24T10:16:21.636Z,68.70
2023-03-24T10:19:29.602Z,69.00
2023-03-24T10:22:05.434Z,68.90
2023-03-24T10:24:45.706Z,70.00
2023-03-24T10:27:37.256Z,70.30
2023-03-24T10:30:14.362Z,70.90
2023-03-24T10:32:44.231Z,71.00
2023-03-24T10:35:37.713Z,71.00
2023-03-24T10:38:18.443Z,70.90
2023-03-24T10:40:48.832Z,71.60
2023-03-24T10:43:20.235Z,71.90
2023-03-24T10:45:53.458Z,72.20
2023-03-24T10:48:42.750Z,73.90
2023-03-24T10:51:18.628Z,73.80
2023-03-24T10:53:49.988Z,73.20
2023-03-24T10:56:39.025Z,73.60
2023-03-24T10:59:21.511Z,73.90
2023-03-24T11:01:50.278Z,74.10
2023-03-24T11:04:21.833Z,74.30
2023-03-24T11:07:05.613Z,74.20
2023-03-24T11:10:03.084Z,74.40
2023-03-24T11:12:34.620Z,74.30
2023-03-24T11:15:19.547Z,72.20
2023-03-24T11:17:53.752Z,70.50
2023-03-24T11:20:32.025Z,71.00
2023-03-24T11:23:04.687Z,68.80
2023-03-24T11:25:36.390Z,69.80
2023-03-24T11:28:10.538Z,69.00
2023-03-24T11:30:58.772Z,68.40
2023-03-24T11:33:35.673Z,67.90
2023-03-24T11:36:34.955Z,68.40
2023-03-24T11:39:22.290Z,69.10
2023-03-24T11:42:02.801Z,69.20
2023-03-24T11:44:49.542Z,69.50
2023-03-24T11:47:32.805Z,69.00
2023-03-24T11:50:23.133Z,69.50
2023-03-24T11:52:52.765Z,69.80
2023-03-24T11:55:39.714Z,69.60
2023-03-24T11:58:28.995Z,69.90
2023-03-24T12:01:06.765Z,70.10
2023-03-24T12:04:14.707Z,70.30
2023-03-24T12:07:23.430Z,70.50
2023-03-24T12:10:08.899Z,70.50
2023-03-24T12:12:42.776Z,70.90
2023-03-24T12:15:27.255Z,72.20
2023-03-24T12:17:59.043Z,72.00
2023-03-24T12:21:06.941Z,72.30
2023-03-24T12:23:59.667Z,71.80
2023-03-24T12:26:34.339Z,70.50
2023-03-24T12:29:16.783Z,70.90
2023-03-24T12:31:54.113Z,71.10
2023-03-24T12:34:28.379Z,71.10
2023-03-24T12:37:18.962Z,71.10
2023-03-24T12:40:26.940Z,71.10
2023-03-24T12:43:13.279Z,71.20
2023-03-24T12:45:45.116Z,71.60
2023-03-24T12:48:39.741Z,72.50
2023-03-24T12:51:16.584Z,73.30
2023-03-24T12:53:54.594Z,73.50
2023-03-24T12:56:35.636Z,73.60
2023-03-24T12:59:11.551Z,72.60
2023-03-24T13:01:46.176Z,72.50
2023-03-24T13:04:24.912Z,72.90
2023-03-24T13:07:12.981Z,73.50
2023-03-24T13:10:02.600Z,73.60
2023-03-24T13:12:44.260Z,74.10
2023-03-24T13:15:15.182Z,74.40
2023-03-24T13:18:18.259Z,74.70
2023-03-24T13:21:08.944Z,75.00
2023-03-24T13:24:06.788Z,75.30
2023-03-24T13:26:41.387Z,75.20
2023-03-24T13:29:45.636Z,74.60
2023-03-24T13:32:30.535Z,75.00
2023-03-24T13:35:11.938Z,75.20
2023-03-24T13:38:07.226Z,75.60
2023-03-24T13:40:41.347Z,75.50
2023-03-24T13:43:18.428Z,75.10
2023-03-24T13:46:01.855Z,75.40
2023-03-24T13:48:31.772Z,76.00
2023-03-24T13:51:08.216Z,76.30
2023-03-24T13:53:45.599Z,76.20
2023-03-24T13:56:23.681Z,76.50
2023-03-24T13:59:09.384Z,77.00
2023-03-24T14:01:40.929Z,77.00
2023-03-24T14:04:28.819Z,75.80
2023-03-24T14:07:00.976Z,75.10
2023-03-24T14:09:32.207Z,75.20
2023-03-24T14:12:06.325Z,76.40
2023-03-24T14:14:57.403Z,76.40
2023-03-24T14:17:26.869Z,76.20
2023-03-24T14:20:09.708Z,77.50
2023-03-24T14:22:54.174Z,78.80
2023-03-24T14:25:28.647Z,77.60
2023-03-24T14:28:21.055Z,78.70
2023-03-24T14:31:14.173Z,78.70
2023-03-24T14:33:46.574Z,78.40
2023-03-24T14:36:26.025Z,77.50
2023-03-24T14:38:54.949Z,76.80
2023-03-24T14:41:32.264Z,76.70
2023-03-24T14:44:01.934Z,76.90
2023-03-24T14:46:41.963Z,76.70
2023-03-24T14:49:31.812Z,76.60
2023-03-24T14:52:12.302Z,77.60
2023-03-24T14:54:46.857Z,77.30
2023-03-24T14:57:33.079Z,77.20
2023-03-24T15:00:28.379Z,76.90
2023-03-24T15:03:03.811Z,76.80
2023-03-24T15:05:33.372Z,76.40
2023-03-24T15:08:06.580Z,75.70
2023-03-24T15:10:42.214Z,75.20
2023-03-24T15:13:31.143Z,75.40
2023-03-24T15:16:01.380Z,75.90
2023-03-24T15:18:30.281Z,76.30
2023-03-24T15:20:59.044Z,76.00
2023-03-24T15:23:30.332Z,76.10
2023-03-24T15:25:59.315Z,75.80
2023-03-24T15:28:31.654Z,76.20
2023-03-24T15:31:00.840Z,75.90
2023-03-24T15:33:32.189Z,75.90
2023-03-24T15:36:03.131Z,76.70
2023-03-24T15:38:33.985Z,76.70
2023-03-24T15:41:05.800Z,77.00
2023-03-24T15:43:34.971Z,76.70
2023-03-24T15:46:12.437Z,76.50
2023-03-24T15:48:42.066Z,78.00
2023-03-24T15:51:13.685Z,78.50
2023-03-24T15:53:46.288Z,77.60
2023-03-24T15:56:19.559Z,77.20
2023-03-24T15:58:51.525Z,77.80
2023-03-24T16:01:28.319Z,78.30
2023-03-24T16:03:57.205Z,78.50
2023-03-24T16:06:31.152Z,78.60
2023-03-24T16:09:02.248Z,77.60
2023-03-24T16:11:31.145Z,77.60
2023-03-24T16:14:00.407Z,77.40
2023-03-24T16:16:31.775Z,77.70
2023-03-24T16:19:00.657Z,79.10
2023-03-24T16:21:31.022Z,79.70
2023-03-24T16:24:01.568Z,79.70
2023-03-24T16:26:32.931Z,79.70
2023-03-24T16:29:21.931Z,80.40
2023-03-24T16:31:54.023Z,79.80
2023-03-24T16:34:24.453Z,78.50
2023-03-24T16:36:55.282Z,78.20
2023-03-24T16:39:27.790Z,78.10
2023-03-24T16:41:57.706Z,78.40
2023-03-24T16:44:26.862Z,79.20
2023-03-24T16:46:56.884Z,78.90
2023-03-24T16:49:26.292Z,78.80
2023-03-24T16:51:55.333Z,78.40
2023-03-24T16:54:24.251Z,78.90
2023-03-24T16:56:53.085Z,78.20
2023-03-24T17:03:18.930Z,78.10
2023-03-24T17:05:50.300Z,78.20
2023-03-24T17:08:20.247Z,78.20
2023-03-24T17:10:52.147Z,78.30
2023-03-24T17:13:24.012Z,78.80
2023-03-24T17:15:53.745Z,78.30
2023-03-24T17:18:22.615Z,78.40
2023-03-24T17:20:51.458Z,79.00
2023-03-24T17:23:20.507Z,78.60
2023-03-24T17:25:49.436Z,78.60
2023-03-24T17:28:19.134Z,79.20
2023-03-24T17:30:48.204Z,79.70
2023-03-24T17:33:17.439Z,79.80
2023-03-24T17:35:47.867Z,80.10
2023-03-24T17:38:17.452Z,81.30
2023-03-24T17:40:47.544Z,80.50
2023-03-24T17:43:16.571Z,80.50
2023-03-24T17:45:45.297Z,80.70
2023-03-24T17:48:14.065Z,80.70
2023-03-24T17:50:42.812Z,79.90
2023-03-24T17:53:14.458Z,79.80
2023-03-24T17:55:43.299Z,79.90
2023-03-24T17:58:12.045Z,80.30
2023-03-24T18:00:40.760Z,80.10
2023-03-24T18:03:09.538Z,80.10
2023-03-24T18:05:38.383Z,80.00
2023-03-24T18:08:07.426Z,80.10
2023-03-24T18:10:37.132Z,80.60
2023-03-24T18:13:07.630Z,80.50
2023-03-24T18:15:36.578Z,81.00
2023-03-24T18:18:05.531Z,80.50
2023-03-24T18:20:34.361Z,80.90
2023-03-24T18:23:03.133Z,81.30
2023-03-24T18:25:33.041Z,81.90
2023-03-24T18:28:01.832Z,84.10
2023-03-24T18:30:31.729Z,84.30
2023-03-24T18:33:02.386Z,84.40
2023-03-24T18:35:31.236Z,84.40
2023-03-24T18:38:00.036Z,84.80
2023-03-24T18:40:28.906Z,86.60
2023-03-24T18:42:57.585Z,86.10
2023-03-24T18:45:26.388Z,85.20
2023-03-24T18:47:55.281Z,85.30
2023-03-24T18:50:23.971Z,84.80
2023-03-24T18:52:52.662Z,85.20
2023-03-24T18:55:22.648Z,84.10
2023-03-24T18:57:51.556Z,85.30
2023-03-24T19:00:21.238Z,84.60
2023-03-24T19:02:50.303Z,84.80
2023-03-24T19:05:19.805Z,85.40
2023-03-24T19:07:49.506Z,86.50
2023-03-24T19:10:18.308Z,87.50
2023-03-24T19:12:47.335Z,87.60
2023-03-24T19:15:16.177Z,88.10
2023-03-24T19:17:44.876Z,87.70
2023-03-24T19:20:14.930Z,88.10
2023-03-24T19:22:43.718Z,87.70
2023-03-24T19:25:12.523Z,88.50
2023-03-24T19:27:41.244Z,88.30
2023-03-24T19:30:11.116Z,86.90
2023-03-24T19:32:40.186Z,85.20
2023-03-24T19:35:09.468Z,85.00
2023-03-24T19:37:38.632Z,84.80
2023-03-24T19:40:12.835Z,85.60
2023-03-24T19:42:42.778Z,86.20
2023-03-24T19:45:14.268Z,85.30
2023-03-24T19:47:44.314Z,87.30
2023-03-24T19:50:14.552Z,88.40
2023-03-24T19:52:46.848Z,88.30
2023-03-24T19:55:16.102Z,88.50
2023-03-24T19:57:44.836Z,88.30
2023-03-24T20:00:15.883Z,87.80
2023-03-24T20:02:44.774Z,89.30
2023-03-24T20:05:13.649Z,89.80
2023-03-24T20:07:42.518Z,89.60
2023-03-24T20:10:11.851Z,89.30
2023-03-24T20:12:40.721Z,87.80
2023-03-24T20:15:09.861Z,88.10
2023-03-24T20:17:40.306Z,87.40
2023-03-24T20:20:12.109Z,87.80
2023-03-24T20:22:43.104Z,86.90
2023-03-24T20:25:13.511Z,86.10
2023-03-24T20:27:42.475Z,86.60
2023-03-24T20:30:11.622Z,86.70
2023-03-24T20:32:40.424Z,88.00
2023-03-24T20:35:10.129Z,88.10
2023-03-24T20:37:38.978Z,90.10
2023-03-24T20:40:10.467Z,90.30
2023-03-24T20:42:39.361Z,90.70
2023-03-24T20:45:09.400Z,90.80
2023-03-24T20:47:38.581Z,91.00
2023-03-24T20:50:08.156Z,91.00
2023-03-24T20:52:37.112Z,91.00
2023-03-24T20:55:07.287Z,90.80
2023-03-24T20:57:37.109Z,90.10
2023-03-24T21:00:14.872Z,89.20
2023-03-24T21:02:44.599Z,89.00
2023-03-24T21:05:13.439Z,88.30
2023-03-24T21:07:44.716Z,88.10
2023-03-24T21:10:13.505Z,88.00
2023-03-24T21:12:53.689Z,87.90
2023-03-24T21:15:25.714Z,88.10
2023-03-24T21:17:55.259Z,89.30
2023-03-24T21:20:27.733Z,89.10
2023-03-24T21:22:57.024Z,89.00
2023-03-24T21:25:28.872Z,88.70
2023-03-24T21:27:58.494Z,88.80
2023-03-24T21:30:28.951Z,89.30
2023-03-24T21:32:58.583Z,87.80
2023-03-24T21:35:27.612Z,87.70
2023-03-24T21:37:57.103Z,87.60
2023-03-24T21:40:27.216Z,88.10
2023-03-24T21:42:56.768Z,89.30
2023-03-24T21:45:25.556Z,89.90
2023-03-24T21:47:56.068Z,90.00
2023-03-24T21:50:24.914Z,89.60
2023-03-24T21:52:55.657Z,89.60
2023-03-24T21:55:26.266Z,89.40
2023-03-24T21:57:56.384Z,89.10
2023-03-24T22:00:30.907Z,90.00
2023-03-24T22:03:02.482Z,90.20
2023-03-24T22:05:31.200Z,90.40
2023-03-24T22:08:03.406Z,90.70
2023-03-24T22:10:35.522Z,90.40
2023-03-24T22:13:05.846Z,89.40
2023-03-24T22:15:47.822Z,88.70
2023-03-24T22:18:16.872Z,88.70
2023-03-24T22:20:45.617Z,88.90
2023-03-24T22:23:14.310Z,89.50
2023-03-24T22:25:43.046Z,89.50
2023-03-24T22:28:11.981Z,89.80
2023-03-24T22:30:42.750Z,90.00
2023-03-24T22:33:11.844Z,90.30
2023-03-24T22:35:41.002Z,90.70
2023-03-24T22:38:15.725Z,90.90
2023-03-24T22:40:44.562Z,90.90
2023-03-24T22:43:13.253Z,91.20
2023-03-24T22:45:42.024Z,91.50
2023-03-24T22:48:10.772Z,91.40
2023-03-24T22:50:42.980Z,91.70
2023-03-24T22:53:11.764Z,91.70
2023-03-24T22:55:43.042Z,91.70
2023-03-24T22:58:13.919Z,91.70
2023-03-24T23:00:44.139Z,91.50
2023-03-24T23:03:13.520Z,91.20
2023-03-24T23:05:44.462Z,91.10
2023-03-24T23:08:15.471Z,90.80
2023-03-24T23:10:46.544Z,90.40
2023-03-24T23:13:15.391Z,90.40
2023-03-24T23:15:44.435Z,90.40
2023-03-24T23:18:13.221Z,90.40
2023-03-24T23:20:42.222Z,90.70
2023-03-24T23:23:11.597Z,90.80
2023-03-24T23:25:44.235Z,90.70
2023-03-24T23:28:14.446Z,91.00
2023-03-24T23:30:43.345Z,91.70
2023-03-24T23:33:15.902Z,92.00
2023-03-24T23:35:45.506Z,92.30
2023-03-24T23:38:14.241Z,92.30
2023-03-24T23:40:42.979Z,92.50
2023-03-24T23:43:12.283Z,92.50
2023-03-24T23:45:41.786Z,92.50
2023-03-24T23:48:10.575Z,92.40
2023-03-24T23:50:39.291Z,92.50
2023-03-24T23:53:07.993Z,92.60
2023-03-24T23:55:36.703Z,92.60
2023-03-24T23:58:05.471Z,92.60
